Springfield, Louisiana
Current Conditions -  °F | °C
As of 10:15 AM on Wednesday 26 Nov 2014 (Local Time) from KHDC Reporting Station
Clear Clear  
Wind Chill: 57°   Ceiling: Unl
Heat Index: 57°   Visibility: 10mi
Dew Point: 36°   Wind: 7mph
Humidity: 44%   Direction: 190°S
Pressure: 30.28"   Gusts: NA
Location:  30.43°N, 90.55°W
Report Text: KHDC 261615Z AUTO 19006KT 10SM CLR 14/02 A3028 RMK AO2
Loading
Personal Weather Stations






























Interactive Weather Map New forecast layout! Learn more

10-Day Weather Forecast

Advertisements
Track Severe Weather on mobile